sensor_id;sensor_type;location;lat;lon;timestamp;P1;durP1;ratioP1;P2;durP2;ratioP2
75890;SDS011;64571;47.512;19.054;2023-08-24T00:02:56;12.00;;;7.78;;
75890;SDS011;64571;47.512;19.054;2023-08-24T00:05:58;16.05;;;8.70;;
75890;SDS011;64571;47.512;19.054;2023-08-24T00:09:01;12.52;;;8.00;;
75890;SDS011;64571;47.512;19.054;2023-08-24T00:12:06;11.63;;;8.52;;
75890;SDS011;64571;47.512;19.054;2023-08-24T00:15:09;11.60;;;7.63;;
75890;SDS011;64571;47.512;19.054;2023-08-24T00:18:12;12.75;;;8.30;;
75890;SDS011;64571;47.512;19.054;2023-08-24T00:21:15;10.68;;;7.37;;
75890;SDS011;64571;47.512;19.054;2023-08-24T00:24:25;11.80;;;7.28;;
75890;SDS011;64571;47.512;19.054;2023-08-24T00:27:27;11.07;;;7.18;;
75890;SDS011;64571;47.512;19.054;2023-08-24T00:30:30;10.63;;;7.27;;
75890;SDS011;64571;47.512;19.054;2023-08-24T00:33:32;13.00;;;7.75;;
75890;SDS011;64571;47.512;19.054;2023-08-24T00:36:36;13.45;;;8.10;;
75890;SDS011;64571;47.512;19.054;2023-08-24T00:39:39;11.60;;;7.80;;
75890;SDS011;64571;47.512;19.054;2023-08-24T00:42:43;10.52;;;7.22;;
75890;SDS011;64571;47.512;19.054;2023-08-24T00:45:46;14.30;;;8.00;;
75890;SDS011;64571;47.512;19.054;2023-08-24T00:48:49;10.70;;;7.03;;
75890;SDS011;64571;47.512;19.054;2023-08-24T00:51:51;12.25;;;8.13;;
75890;SDS011;64571;47.512;19.054;2023-08-24T00:54:54;11.75;;;7.40;;
75890;SDS011;64571;47.512;19.054;2023-08-24T00:57:57;10.70;;;7.32;;
75890;SDS011;64571;47.512;19.054;2023-08-24T01:01:02;14.90;;;7.03;;
75890;SDS011;64571;47.512;19.054;2023-08-24T01:04:05;12.13;;;7.43;;
75890;SDS011;64571;47.512;19.054;2023-08-24T01:07:10;13.30;;;7.85;;
75890;SDS011;64571;47.512;19.054;2023-08-24T01:10:15;13.10;;;8.13;;
75890;SDS011;64571;47.512;19.054;2023-08-24T01:13:30;10.85;;;8.30;;
75890;SDS011;64571;47.512;19.054;2023-08-24T01:16:38;11.27;;;7.37;;
75890;SDS011;64571;47.512;19.054;2023-08-24T01:19:43;14.85;;;8.27;;
75890;SDS011;64571;47.512;19.054;2023-08-24T01:29:15;13.35;;;8.25;;
75890;SDS011;64571;47.512;19.054;2023-08-24T01:32:19;11.80;;;8.50;;
75890;SDS011;64571;47.512;19.054;2023-08-24T01:35:22;12.90;;;8.40;;
75890;SDS011;64571;47.512;19.054;2023-08-24T01:38:25;15.98;;;9.07;;
75890;SDS011;64571;47.512;19.054;2023-08-24T01:41:30;13.80;;;7.95;;
75890;SDS011;64571;47.512;19.054;2023-08-24T01:44:38;12.80;;;8.30;;
75890;SDS011;64571;47.512;19.054;2023-08-24T01:47:47;11.63;;;7.53;;
75890;SDS011;64571;47.512;19.054;2023-08-24T01:50:51;11.02;;;7.28;;
75890;SDS011;64571;47.512;19.054;2023-08-24T01:53:54;15.63;;;8.65;;
75890;SDS011;64571;47.512;19.054;2023-08-24T01:56:57;13.77;;;7.70;;
75890;SDS011;64571;47.512;19.054;2023-08-24T02:00:00;10.55;;;7.60;;
75890;SDS011;64571;47.512;19.054;2023-08-24T02:03:02;10.83;;;7.73;;
75890;SDS011;64571;47.512;19.054;2023-08-24T02:06:06;12.93;;;7.90;;
75890;SDS011;64571;47.512;19.054;2023-08-24T02:09:09;11.40;;;7.93;;
75890;SDS011;64571;47.512;19.054;2023-08-24T02:12:11;12.57;;;7.10;;
75890;SDS011;64571;47.512;19.054;2023-08-24T02:15:14;11.12;;;7.25;;
75890;SDS011;64571;47.512;19.054;2023-08-24T02:18:17;11.10;;;7.50;;
75890;SDS011;64571;47.512;19.054;2023-08-24T02:21:19;11.12;;;7.53;;
75890;SDS011;64571;47.512;19.054;2023-08-24T02:24:22;13.35;;;7.65;;
75890;SDS011;64571;47.512;19.054;2023-08-24T02:27:25;10.90;;;7.03;;
75890;SDS011;64571;47.512;19.054;2023-08-24T02:30:27;10.65;;;7.07;;
75890;SDS011;64571;47.512;19.054;2023-08-24T02:33:30;12.60;;;7.50;;
75890;SDS011;64571;47.512;19.054;2023-08-24T02:36:34;15.02;;;7.72;;
75890;SDS011;64571;47.512;19.054;2023-08-24T02:39:37;10.70;;;7.47;;
75890;SDS011;64571;47.512;19.054;2023-08-24T02:42:40;17.95;;;7.95;;
75890;SDS011;64571;47.512;19.054;2023-08-24T02:45:42;11.02;;;8.07;;
75890;SDS011;64571;47.512;19.054;2023-08-24T02:48:46;14.87;;;8.27;;
75890;SDS011;64571;47.512;19.054;2023-08-24T02:51:48;10.82;;;7.03;;
75890;SDS011;64571;47.512;19.054;2023-08-24T02:54:51;12.25;;;7.95;;
75890;SDS011;64571;47.512;19.054;2023-08-24T02:57:54;12.37;;;8.60;;
75890;SDS011;64571;47.512;19.054;2023-08-24T03:00:58;11.30;;;8.40;;
75890;SDS011;64571;47.512;19.054;2023-08-24T03:04:00;11.53;;;7.70;;
75890;SDS011;64571;47.512;19.054;2023-08-24T03:07:03;15.60;;;7.85;;
75890;SDS011;64571;47.512;19.054;2023-08-24T03:10:09;15.18;;;8.23;;
75890;SDS011;64571;47.512;19.054;2023-08-24T03:13:13;13.43;;;7.80;;
75890;SDS011;64571;47.512;19.054;2023-08-24T03:16:16;11.30;;;7.40;;
75890;SDS011;64571;47.512;19.054;2023-08-24T03:19:18;11.60;;;7.83;;
75890;SDS011;64571;47.512;19.054;2023-08-24T03:22:21;12.60;;;8.48;;
75890;SDS011;64571;47.512;19.054;2023-08-24T03:25:24;13.35;;;7.53;;
75890;SDS011;64571;47.512;19.054;2023-08-24T03:28:27;13.35;;;8.55;;
75890;SDS011;64571;47.512;19.054;2023-08-24T03:31:30;12.23;;;8.10;;
75890;SDS011;64571;47.512;19.054;2023-08-24T03:34:33;12.97;;;8.17;;
75890;SDS011;64571;47.512;19.054;2023-08-24T03:37:36;12.18;;;8.35;;
75890;SDS011;64571;47.512;19.054;2023-08-24T03:40:41;16.77;;;8.95;;
75890;SDS011;64571;47.512;19.054;2023-08-24T03:43:44;12.75;;;7.50;;
75890;SDS011;64571;47.512;19.054;2023-08-24T03:46:47;13.35;;;8.27;;
75890;SDS011;64571;47.512;19.054;2023-08-24T03:49:50;12.07;;;8.43;;
75890;SDS011;64571;47.512;19.054;2023-08-24T03:52:53;15.82;;;9.23;;
75890;SDS011;64571;47.512;19.054;2023-08-24T03:55:57;12.48;;;9.27;;
75890;SDS011;64571;47.512;19.054;2023-08-24T03:58:59;11.60;;;8.25;;
75890;SDS011;64571;47.512;19.054;2023-08-24T04:02:02;14.75;;;8.80;;
75890;SDS011;64571;47.512;19.054;2023-08-24T04:05:05;12.87;;;9.20;;
75890;SDS011;64571;47.512;19.054;2023-08-24T04:08:08;12.43;;;9.00;;
75890;SDS011;64571;47.512;19.054;2023-08-24T04:11:11;13.68;;;8.50;;
75890;SDS011;64571;47.512;19.054;2023-08-24T04:14:14;15.90;;;8.45;;
75890;SDS011;64571;47.512;19.054;2023-08-24T04:17:17;12.68;;;9.25;;
75890;SDS011;64571;47.512;19.054;2023-08-24T04:20:19;12.43;;;8.60;;
75890;SDS011;64571;47.512;19.054;2023-08-24T04:23:25;14.85;;;8.43;;
75890;SDS011;64571;47.512;19.054;2023-08-24T04:26:28;14.52;;;9.40;;
75890;SDS011;64571;47.512;19.054;2023-08-24T04:29:31;18.02;;;9.60;;
75890;SDS011;64571;47.512;19.054;2023-08-24T04:32:34;14.68;;;9.32;;
75890;SDS011;64571;47.512;19.054;2023-08-24T04:35:36;13.30;;;8.63;;
75890;SDS011;64571;47.512;19.054;2023-08-24T04:38:39;15.15;;;10.45;;
75890;SDS011;64571;47.512;19.054;2023-08-24T04:41:42;18.67;;;9.30;;
75890;SDS011;64571;47.512;19.054;2023-08-24T04:44:44;12.57;;;9.05;;
75890;SDS011;64571;47.512;19.054;2023-08-24T04:47:47;17.83;;;10.05;;
75890;SDS011;64571;47.512;19.054;2023-08-24T04:50:50;14.60;;;9.13;;
75890;SDS011;64571;47.512;19.054;2023-08-24T04:53:53;14.10;;;9.57;;
75890;SDS011;64571;47.512;19.054;2023-08-24T04:56:56;14.05;;;9.13;;
75890;SDS011;64571;47.512;19.054;2023-08-24T04:59:58;17.95;;;8.98;;
75890;SDS011;64571;47.512;19.054;2023-08-24T05:03:04;15.07;;;8.98;;
75890;SDS011;64571;47.512;19.054;2023-08-24T05:06:08;14.40;;;9.80;;
75890;SDS011;64571;47.512;19.054;2023-08-24T05:09:11;14.43;;;9.38;;
75890;SDS011;64571;47.512;19.054;2023-08-24T05:12:13;14.15;;;9.57;;
75890;SDS011;64571;47.512;19.054;2023-08-24T05:15:16;15.63;;;9.88;;
75890;SDS011;64571;47.512;19.054;2023-08-24T05:18:18;13.55;;;9.52;;
75890;SDS011;64571;47.512;19.054;2023-08-24T05:21:21;12.70;;;8.80;;
75890;SDS011;64571;47.512;19.054;2023-08-24T05:24:24;14.23;;;8.70;;
75890;SDS011;64571;47.512;19.054;2023-08-24T05:27:26;15.45;;;9.10;;
75890;SDS011;64571;47.512;19.054;2023-08-24T05:30:29;15.13;;;8.85;;
75890;SDS011;64571;47.512;19.054;2023-08-24T05:33:31;14.98;;;8.82;;
75890;SDS011;64571;47.512;19.054;2023-08-24T05:36:35;15.87;;;9.10;;
75890;SDS011;64571;47.512;19.054;2023-08-24T05:39:38;14.02;;;8.88;;
75890;SDS011;64571;47.512;19.054;2023-08-24T05:42:41;16.17;;;9.50;;
75890;SDS011;64571;47.512;19.054;2023-08-24T05:45:43;18.05;;;9.15;;
75890;SDS011;64571;47.512;19.054;2023-08-24T05:48:49;13.25;;;8.90;;
75890;SDS011;64571;47.512;19.054;2023-08-24T05:51:51;13.13;;;8.63;;
75890;SDS011;64571;47.512;19.054;2023-08-24T05:54:54;13.57;;;8.52;;
75890;SDS011;64571;47.512;19.054;2023-08-24T05:57:57;12.93;;;7.20;;
75890;SDS011;64571;47.512;19.054;2023-08-24T06:00:59;14.18;;;7.28;;
75890;SDS011;64571;47.512;19.054;2023-08-24T06:04:02;16.33;;;10.23;;
75890;SDS011;64571;47.512;19.054;2023-08-24T06:07:06;13.70;;;8.53;;
75890;SDS011;64571;47.512;19.054;2023-08-24T06:10:09;12.57;;;7.85;;
75890;SDS011;64571;47.512;19.054;2023-08-24T06:13:12;11.57;;;7.10;;
75890;SDS011;64571;47.512;19.054;2023-08-24T06:16:15;13.98;;;8.05;;
75890;SDS011;64571;47.512;19.054;2023-08-24T06:19:17;14.65;;;7.65;;
75890;SDS011;64571;47.512;19.054;2023-08-24T06:22:20;12.73;;;7.97;;
75890;SDS011;64571;47.512;19.054;2023-08-24T06:25:22;18.00;;;11.23;;
75890;SDS011;64571;47.512;19.054;2023-08-24T06:28:25;12.25;;;7.65;;
75890;SDS011;64571;47.512;19.054;2023-08-24T06:31:28;14.68;;;8.07;;
75890;SDS011;64571;47.512;19.054;2023-08-24T06:34:32;14.60;;;8.35;;
75890;SDS011;64571;47.512;19.054;2023-08-24T06:37:35;14.10;;;7.77;;
75890;SDS011;64571;47.512;19.054;2023-08-24T06:40:38;14.43;;;8.60;;
75890;SDS011;64571;47.512;19.054;2023-08-24T06:43:41;14.93;;;8.20;;
75890;SDS011;64571;47.512;19.054;2023-08-24T06:46:43;12.27;;;8.15;;
75890;SDS011;64571;47.512;19.054;2023-08-24T06:49:46;15.43;;;8.95;;
75890;SDS011;64571;47.512;19.054;2023-08-24T06:52:49;12.70;;;8.63;;
75890;SDS011;64571;47.512;19.054;2023-08-24T06:55:57;11.57;;;7.80;;
75890;SDS011;64571;47.512;19.054;2023-08-24T06:59:00;11.00;;;8.02;;
75890;SDS011;64571;47.512;19.054;2023-08-24T07:02:03;11.55;;;7.55;;
75890;SDS011;64571;47.512;19.054;2023-08-24T07:05:06;13.45;;;9.25;;
75890;SDS011;64571;47.512;19.054;2023-08-24T07:08:10;14.60;;;9.77;;
75890;SDS011;64571;47.512;19.054;2023-08-24T07:11:13;18.00;;;8.75;;
75890;SDS011;64571;47.512;19.054;2023-08-24T07:14:17;12.05;;;7.70;;
75890;SDS011;64571;47.512;19.054;2023-08-24T07:17:19;17.77;;;7.53;;
75890;SDS011;64571;47.512;19.054;2023-08-24T07:20:22;12.13;;;7.45;;
75890;SDS011;64571;47.512;19.054;2023-08-24T07:23:26;12.50;;;7.63;;
75890;SDS011;64571;47.512;19.054;2023-08-24T07:26:28;12.35;;;6.97;;
75890;SDS011;64571;47.512;19.054;2023-08-24T07:29:32;11.35;;;8.23;;
75890;SDS011;64571;47.512;19.054;2023-08-24T07:32:35;12.13;;;7.57;;
75890;SDS011;64571;47.512;19.054;2023-08-24T07:35:38;14.23;;;7.87;;
75890;SDS011;64571;47.512;19.054;2023-08-24T07:38:41;13.20;;;8.17;;
75890;SDS011;64571;47.512;19.054;2023-08-24T07:41:44;11.98;;;8.15;;
75890;SDS011;64571;47.512;19.054;2023-08-24T07:44:47;12.90;;;8.70;;
75890;SDS011;64571;47.512;19.054;2023-08-24T07:47:50;15.32;;;8.00;;
75890;SDS011;64571;47.512;19.054;2023-08-24T07:50:53;15.23;;;7.93;;
75890;SDS011;64571;47.512;19.054;2023-08-24T07:53:56;11.17;;;7.53;;
75890;SDS011;64571;47.512;19.054;2023-08-24T07:56:58;14.65;;;7.68;;
75890;SDS011;64571;47.512;19.054;2023-08-24T08:00:02;12.02;;;6.82;;
75890;SDS011;64571;47.512;19.054;2023-08-24T08:03:13;11.05;;;7.40;;
75890;SDS011;64571;47.512;19.054;2023-08-24T08:06:16;13.60;;;7.75;;
75890;SDS011;64571;47.512;19.054;2023-08-24T08:09:19;12.13;;;6.87;;
75890;SDS011;64571;47.512;19.054;2023-08-24T08:12:21;10.95;;;7.12;;
75890;SDS011;64571;47.512;19.054;2023-08-24T08:15:24;10.65;;;7.18;;
75890;SDS011;64571;47.512;19.054;2023-08-24T08:18:27;10.73;;;6.50;;
75890;SDS011;64571;47.512;19.054;2023-08-24T08:21:29;9.05;;;6.22;;
75890;SDS011;64571;47.512;19.054;2023-08-24T08:24:33;10.80;;;6.07;;
75890;SDS011;64571;47.512;19.054;2023-08-24T08:27:35;9.23;;;5.82;;
75890;SDS011;64571;47.512;19.054;2023-08-24T08:30:38;7.93;;;5.10;;
75890;SDS011;64571;47.512;19.054;2023-08-24T08:33:41;16.27;;;9.85;;
75890;SDS011;64571;47.512;19.054;2023-08-24T08:36:43;14.55;;;7.65;;
75890;SDS011;64571;47.512;19.054;2023-08-24T08:39:46;11.33;;;6.50;;
75890;SDS011;64571;47.512;19.054;2023-08-24T08:42:48;9.77;;;6.30;;
75890;SDS011;64571;47.512;19.054;2023-08-24T08:45:51;11.35;;;6.07;;
75890;SDS011;64571;47.512;19.054;2023-08-24T08:48:57;12.70;;;6.22;;
75890;SDS011;64571;47.512;19.054;2023-08-24T08:52:02;8.98;;;5.90;;
75890;SDS011;64571;47.512;19.054;2023-08-24T08:55:06;12.53;;;7.40;;
75890;SDS011;64571;47.512;19.054;2023-08-24T08:58:12;9.70;;;6.80;;
75890;SDS011;64571;47.512;19.054;2023-08-24T09:01:16;11.52;;;6.93;;
75890;SDS011;64571;47.512;19.054;2023-08-24T09:04:19;14.85;;;6.50;;
75890;SDS011;64571;47.512;19.054;2023-08-24T09:07:22;12.37;;;6.45;;
75890;SDS011;64571;47.512;19.054;2023-08-24T09:10:25;11.63;;;6.40;;
75890;SDS011;64571;47.512;19.054;2023-08-24T09:13:28;10.77;;;6.20;;
75890;SDS011;64571;47.512;19.054;2023-08-24T09:16:31;16.02;;;7.18;;
75890;SDS011;64571;47.512;19.054;2023-08-24T09:19:35;9.38;;;6.32;;
75890;SDS011;64571;47.512;19.054;2023-08-24T09:22:37;15.90;;;8.52;;
75890;SDS011;64571;47.512;19.054;2023-08-24T09:25:45;11.20;;;7.10;;
75890;SDS011;64571;47.512;19.054;2023-08-24T09:28:49;15.73;;;7.30;;
75890;SDS011;64571;47.512;19.054;2023-08-24T09:31:52;11.20;;;6.87;;
75890;SDS011;64571;47.512;19.054;2023-08-24T09:34:55;13.27;;;7.55;;
75890;SDS011;64571;47.512;19.054;2023-08-24T09:37:58;11.55;;;7.18;;
75890;SDS011;64571;47.512;19.054;2023-08-24T09:41:01;10.40;;;6.77;;
75890;SDS011;64571;47.512;19.054;2023-08-24T09:44:04;10.38;;;6.05;;
75890;SDS011;64571;47.512;19.054;2023-08-24T09:47:10;11.20;;;7.53;;
75890;SDS011;64571;47.512;19.054;2023-08-24T09:50:14;10.43;;;6.57;;
75890;SDS011;64571;47.512;19.054;2023-08-24T09:53:21;11.95;;;6.80;;
75890;SDS011;64571;47.512;19.054;2023-08-24T09:56:25;11.37;;;7.07;;
75890;SDS011;64571;47.512;19.054;2023-08-24T09:59:30;10.98;;;8.15;;
75890;SDS011;64571;47.512;19.054;2023-08-24T10:02:33;11.38;;;7.65;;
75890;SDS011;64571;47.512;19.054;2023-08-24T10:05:40;15.80;;;6.82;;
75890;SDS011;64571;47.512;19.054;2023-08-24T10:09:01;10.75;;;6.70;;
75890;SDS011;64571;47.512;19.054;2023-08-24T10:12:09;9.87;;;6.60;;
75890;SDS011;64571;47.512;19.054;2023-08-24T10:15:13;13.02;;;6.95;;
75890;SDS011;64571;47.512;19.054;2023-08-24T10:18:18;10.68;;;6.87;;
75890;SDS011;64571;47.512;19.054;2023-08-24T10:21:23;11.82;;;6.87;;
75890;SDS011;64571;47.512;19.054;2023-08-24T10:24:29;9.13;;;6.30;;
75890;SDS011;64571;47.512;19.054;2023-08-24T10:27:34;12.27;;;6.27;;
75890;SDS011;64571;47.512;19.054;2023-08-24T10:30:38;10.25;;;5.75;;
75890;SDS011;64571;47.512;19.054;2023-08-24T10:33:43;10.70;;;6.10;;
75890;SDS011;64571;47.512;19.054;2023-08-24T10:36:48;12.52;;;6.75;;
75890;SDS011;64571;47.512;19.054;2023-08-24T10:39:54;15.32;;;6.82;;
75890;SDS011;64571;47.512;19.054;2023-08-24T10:42:57;11.37;;;5.90;;
75890;SDS011;64571;47.512;19.054;2023-08-24T10:46:00;10.15;;;6.22;;
75890;SDS011;64571;47.512;19.054;2023-08-24T10:49:07;10.20;;;6.00;;
75890;SDS011;64571;47.512;19.054;2023-08-24T10:52:16;9.27;;;6.45;;
75890;SDS011;64571;47.512;19.054;2023-08-24T10:55:26;11.52;;;8.07;;
75890;SDS011;64571;47.512;19.054;2023-08-24T10:58:33;9.37;;;5.90;;
75890;SDS011;64571;47.512;19.054;2023-08-24T11:01:42;8.20;;;5.25;;
75890;SDS011;64571;47.512;19.054;2023-08-24T11:05:03;9.48;;;5.78;;
75890;SDS011;64571;47.512;19.054;2023-08-24T11:08:16;9.15;;;5.80;;
75890;SDS011;64571;47.512;19.054;2023-08-24T11:11:22;10.48;;;6.07;;
75890;SDS011;64571;47.512;19.054;2023-08-24T11:14:27;9.93;;;6.20;;
75890;SDS011;64571;47.512;19.054;2023-08-24T11:17:32;8.60;;;5.47;;
75890;SDS011;64571;47.512;19.054;2023-08-24T11:20:35;9.88;;;6.03;;
75890;SDS011;64571;47.512;19.054;2023-08-24T11:23:38;8.05;;;5.65;;
75890;SDS011;64571;47.512;19.054;2023-08-24T11:26:42;8.82;;;5.93;;
75890;SDS011;64571;47.512;19.054;2023-08-24T11:29:58;8.93;;;5.70;;
75890;SDS011;64571;47.512;19.054;2023-08-24T11:33:02;8.68;;;6.03;;
75890;SDS011;64571;47.512;19.054;2023-08-24T11:36:06;10.73;;;6.35;;
75890;SDS011;64571;47.512;19.054;2023-08-24T11:39:17;9.15;;;5.85;;
75890;SDS011;64571;47.512;19.054;2023-08-24T11:42:22;8.18;;;5.85;;
75890;SDS011;64571;47.512;19.054;2023-08-24T11:45:29;9.60;;;6.77;;
75890;SDS011;64571;47.512;19.054;2023-08-24T11:48:33;11.45;;;6.47;;
75890;SDS011;64571;47.512;19.054;2023-08-24T11:51:38;11.05;;;6.30;;
75890;SDS011;64571;47.512;19.054;2023-08-24T11:54:44;11.48;;;6.40;;
75890;SDS011;64571;47.512;19.054;2023-08-24T11:57:48;8.73;;;6.18;;
75890;SDS011;64571;47.512;19.054;2023-08-24T12:00:51;11.33;;;6.97;;
75890;SDS011;64571;47.512;19.054;2023-08-24T12:03:54;14.48;;;6.20;;
75890;SDS011;64571;47.512;19.054;2023-08-24T12:06:57;10.48;;;6.40;;
75890;SDS011;64571;47.512;19.054;2023-08-24T12:10:00;10.80;;;5.80;;
75890;SDS011;64571;47.512;19.054;2023-08-24T12:13:03;10.05;;;5.40;;
75890;SDS011;64571;47.512;19.054;2023-08-24T12:16:07;10.07;;;5.77;;
75890;SDS011;64571;47.512;19.054;2023-08-24T12:19:12;11.48;;;6.10;;
75890;SDS011;64571;47.512;19.054;2023-08-24T12:22:15;10.15;;;6.57;;
75890;SDS011;64571;47.512;19.054;2023-08-24T12:25:22;9.50;;;5.78;;
75890;SDS011;64571;47.512;19.054;2023-08-24T12:28:25;9.32;;;5.20;;
75890;SDS011;64571;47.512;19.054;2023-08-24T12:31:31;8.57;;;6.23;;
75890;SDS011;64571;47.512;19.054;2023-08-24T12:34:34;12.35;;;7.25;;
75890;SDS011;64571;47.512;19.054;2023-08-24T12:37:37;10.30;;;5.78;;
75890;SDS011;64571;47.512;19.054;2023-08-24T12:40:40;7.60;;;5.20;;
75890;SDS011;64571;47.512;19.054;2023-08-24T12:43:43;8.27;;;5.32;;
75890;SDS011;64571;47.512;19.054;2023-08-24T12:46:48;10.50;;;5.10;;
75890;SDS011;64571;47.512;19.054;2023-08-24T12:49:51;7.68;;;5.78;;
75890;SDS011;64571;47.512;19.054;2023-08-24T12:52:54;11.23;;;7.90;;
75890;SDS011;64571;47.512;19.054;2023-08-24T12:56:01;9.73;;;5.68;;
75890;SDS011;64571;47.512;19.054;2023-08-24T12:59:04;7.82;;;5.65;;
75890;SDS011;64571;47.512;19.054;2023-08-24T13:02:06;7.70;;;5.23;;
75890;SDS011;64571;47.512;19.054;2023-08-24T13:05:09;9.02;;;5.43;;
75890;SDS011;64571;47.512;19.054;2023-08-24T13:08:12;9.95;;;6.18;;
75890;SDS011;64571;47.512;19.054;2023-08-24T13:11:15;13.60;;;5.65;;
75890;SDS011;64571;47.512;19.054;2023-08-24T13:14:17;10.38;;;5.68;;
75890;SDS011;64571;47.512;19.054;2023-08-24T13:17:20;11.37;;;6.13;;
75890;SDS011;64571;47.512;19.054;2023-08-24T13:20:23;9.48;;;5.60;;
75890;SDS011;64571;47.512;19.054;2023-08-24T13:23:28;7.57;;;5.00;;
75890;SDS011;64571;47.512;19.054;2023-08-24T13:26:30;12.18;;;5.60;;
75890;SDS011;64571;47.512;19.054;2023-08-24T13:29:33;12.52;;;5.68;;
75890;SDS011;64571;47.512;19.054;2023-08-24T13:32:35;9.67;;;5.63;;
75890;SDS011;64571;47.512;19.054;2023-08-24T13:35:38;8.82;;;5.35;;
75890;SDS011;64571;47.512;19.054;2023-08-24T13:38:40;7.10;;;5.00;;
75890;SDS011;64571;47.512;19.054;2023-08-24T13:41:43;8.10;;;5.22;;
75890;SDS011;64571;47.512;19.054;2023-08-24T13:44:46;9.43;;;5.57;;
75890;SDS011;64571;47.512;19.054;2023-08-24T13:47:49;8.77;;;5.90;;
75890;SDS011;64571;47.512;19.054;2023-08-24T13:50:52;10.20;;;5.35;;
75890;SDS011;64571;47.512;19.054;2023-08-24T13:53:55;10.07;;;5.28;;
75890;SDS011;64571;47.512;19.054;2023-08-24T13:56:57;6.50;;;4.50;;
75890;SDS011;64571;47.512;19.054;2023-08-24T14:00:03;8.38;;;5.68;;
75890;SDS011;64571;47.512;19.054;2023-08-24T14:03:13;8.10;;;5.13;;
75890;SDS011;64571;47.512;19.054;2023-08-24T14:06:16;8.50;;;5.00;;
75890;SDS011;64571;47.512;19.054;2023-08-24T14:09:18;7.50;;;5.03;;
75890;SDS011;64571;47.512;19.054;2023-08-24T14:12:21;9.40;;;5.15;;
75890;SDS011;64571;47.512;19.054;2023-08-24T14:15:24;9.15;;;5.25;;
75890;SDS011;64571;47.512;19.054;2023-08-24T14:18:26;8.10;;;4.80;;
75890;SDS011;64571;47.512;19.054;2023-08-24T14:21:30;10.88;;;5.40;;
75890;SDS011;64571;47.512;19.054;2023-08-24T14:24:46;7.47;;;4.68;;
75890;SDS011;64571;47.512;19.054;2023-08-24T14:27:49;9.13;;;5.25;;
75890;SDS011;64571;47.512;19.054;2023-08-24T14:31:05;8.02;;;4.57;;
75890;SDS011;64571;47.512;19.054;2023-08-24T14:34:08;7.53;;;5.00;;
75890;SDS011;64571;47.512;19.054;2023-08-24T14:37:10;7.22;;;4.65;;
75890;SDS011;64571;47.512;19.054;2023-08-24T14:40:13;7.70;;;4.93;;
75890;SDS011;64571;47.512;19.054;2023-08-24T14:43:18;7.40;;;5.37;;
75890;SDS011;64571;47.512;19.054;2023-08-24T14:46:21;8.35;;;5.18;;
75890;SDS011;64571;47.512;19.054;2023-08-24T14:49:24;11.00;;;4.93;;
75890;SDS011;64571;47.512;19.054;2023-08-24T14:52:26;8.40;;;5.50;;
75890;SDS011;64571;47.512;19.054;2023-08-24T14:55:29;7.75;;;5.37;;
75890;SDS011;64571;47.512;19.054;2023-08-24T14:58:31;8.05;;;5.12;;
75890;SDS011;64571;47.512;19.054;2023-08-24T15:01:34;6.75;;;5.45;;
75890;SDS011;64571;47.512;19.054;2023-08-24T15:04:36;8.33;;;5.13;;
75890;SDS011;64571;47.512;19.054;2023-08-24T15:07:39;7.45;;;4.37;;
75890;SDS011;64571;47.512;19.054;2023-08-24T15:10:42;12.35;;;5.32;;
75890;SDS011;64571;47.512;19.054;2023-08-24T15:13:44;9.57;;;4.80;;
75890;SDS011;64571;47.512;19.054;2023-08-24T15:16:47;9.85;;;5.18;;
75890;SDS011;64571;47.512;19.054;2023-08-24T15:19:50;7.93;;;5.70;;
75890;SDS011;64571;47.512;19.054;2023-08-24T15:22:52;9.43;;;5.68;;
75890;SDS011;64571;47.512;19.054;2023-08-24T15:25:56;9.23;;;5.60;;
75890;SDS011;64571;47.512;19.054;2023-08-24T15:29:07;9.95;;;5.90;;
75890;SDS011;64571;47.512;19.054;2023-08-24T15:32:10;9.60;;;5.78;;
75890;SDS011;64571;47.512;19.054;2023-08-24T15:35:13;10.60;;;6.10;;
75890;SDS011;64571;47.512;19.054;2023-08-24T15:38:16;7.45;;;5.50;;
75890;SDS011;64571;47.512;19.054;2023-08-24T15:41:18;9.80;;;5.12;;
75890;SDS011;64571;47.512;19.054;2023-08-24T15:44:21;11.85;;;5.53;;
75890;SDS011;64571;47.512;19.054;2023-08-24T15:47:23;10.15;;;5.00;;
75890;SDS011;64571;47.512;19.054;2023-08-24T15:50:26;7.40;;;5.00;;
75890;SDS011;64571;47.512;19.054;2023-08-24T15:53:29;12.63;;;5.37;;
75890;SDS011;64571;47.512;19.054;2023-08-24T15:56:32;9.93;;;5.50;;
75890;SDS011;64571;47.512;19.054;2023-08-24T15:59:34;8.25;;;5.55;;
75890;SDS011;64571;47.512;19.054;2023-08-24T16:02:38;8.98;;;5.20;;
75890;SDS011;64571;47.512;19.054;2023-08-24T16:05:41;9.63;;;5.40;;
75890;SDS011;64571;47.512;19.054;2023-08-24T16:08:43;8.40;;;5.18;;
75890;SDS011;64571;47.512;19.054;2023-08-24T16:11:46;12.77;;;4.85;;
75890;SDS011;64571;47.512;19.054;2023-08-24T16:14:48;10.20;;;5.07;;
75890;SDS011;64571;47.512;19.054;2023-08-24T16:17:51;10.65;;;6.05;;
75890;SDS011;64571;47.512;19.054;2023-08-24T16:20:54;10.33;;;4.80;;
75890;SDS011;64571;47.512;19.054;2023-08-24T16:23:57;11.07;;;5.55;;
75890;SDS011;64571;47.512;19.054;2023-08-24T16:27:00;8.48;;;5.28;;
75890;SDS011;64571;47.512;19.054;2023-08-24T16:30:02;7.80;;;5.03;;
75890;SDS011;64571;47.512;19.054;2023-08-24T16:33:05;7.55;;;5.22;;
75890;SDS011;64571;47.512;19.054;2023-08-24T16:36:08;13.17;;;5.60;;
75890;SDS011;64571;47.512;19.054;2023-08-24T16:39:11;9.63;;;5.35;;
75890;SDS011;64571;47.512;19.054;2023-08-24T16:42:14;7.72;;;5.20;;
75890;SDS011;64571;47.512;19.054;2023-08-24T16:45:16;7.25;;;4.78;;
75890;SDS011;64571;47.512;19.054;2023-08-24T16:48:19;8.55;;;5.50;;
75890;SDS011;64571;47.512;19.054;2023-08-24T16:51:21;11.50;;;6.07;;
75890;SDS011;64571;47.512;19.054;2023-08-24T16:54:24;12.27;;;5.82;;
75890;SDS011;64571;47.512;19.054;2023-08-24T16:57:27;11.23;;;6.22;;
75890;SDS011;64571;47.512;19.054;2023-08-24T17:00:31;9.98;;;5.60;;
75890;SDS011;64571;47.512;19.054;2023-08-24T17:03:36;9.43;;;5.87;;
75890;SDS011;64571;47.512;19.054;2023-08-24T17:06:38;10.20;;;6.83;;
75890;SDS011;64571;47.512;19.054;2023-08-24T17:09:41;9.82;;;4.75;;
75890;SDS011;64571;47.512;19.054;2023-08-24T17:12:43;12.30;;;5.60;;
75890;SDS011;64571;47.512;19.054;2023-08-24T17:15:49;7.25;;;4.95;;
75890;SDS011;64571;47.512;19.054;2023-08-24T17:18:53;11.48;;;5.80;;
75890;SDS011;64571;47.512;19.054;2023-08-24T17:21:55;12.43;;;6.63;;
75890;SDS011;64571;47.512;19.054;2023-08-24T17:24:58;11.93;;;6.00;;
75890;SDS011;64571;47.512;19.054;2023-08-24T17:28:00;11.65;;;5.95;;
75890;SDS011;64571;47.512;19.054;2023-08-24T17:31:03;10.85;;;5.40;;
75890;SDS011;64571;47.512;19.054;2023-08-24T17:34:09;12.65;;;6.10;;
75890;SDS011;64571;47.512;19.054;2023-08-24T17:37:11;8.90;;;6.20;;
75890;SDS011;64571;47.512;19.054;2023-08-24T17:40:14;10.30;;;6.10;;
75890;SDS011;64571;47.512;19.054;2023-08-24T17:43:17;10.73;;;6.53;;
75890;SDS011;64571;47.512;19.054;2023-08-24T17:46:19;14.73;;;7.45;;
75890;SDS011;64571;47.512;19.054;2023-08-24T17:49:22;11.60;;;7.80;;
75890;SDS011;64571;47.512;19.054;2023-08-24T17:52:25;10.47;;;6.73;;
75890;SDS011;64571;47.512;19.054;2023-08-24T17:55:27;15.30;;;6.90;;
75890;SDS011;64571;47.512;19.054;2023-08-24T17:58:30;10.68;;;6.20;;
75890;SDS011;64571;47.512;19.054;2023-08-24T18:01:33;11.85;;;6.18;;
75890;SDS011;64571;47.512;19.054;2023-08-24T18:04:36;10.43;;;5.70;;
75890;SDS011;64571;47.512;19.054;2023-08-24T18:07:38;11.07;;;7.33;;